sensor_id;sensor_type;location;lat;lon;timestamp;pressure;altitude;pressure_sealevel;temperature;humidity
46379;BME280;32084;42.254;22.744;2023-02-16T00:01:42;96478.97;;;-1.46;77.33
46379;BME280;32084;42.254;22.744;2023-02-16T00:04:17;96480.50;;;-1.40;77.26
46379;BME280;32084;42.254;22.744;2023-02-16T00:06:43;96478.50;;;-1.57;77.09
46379;BME280;32084;42.254;22.744;2023-02-16T00:09:09;96482.88;;;-1.58;76.45
46379;BME280;32084;42.254;22.744;2023-02-16T00:11:35;96481.19;;;-1.84;76.85
46379;BME280;32084;42.254;22.744;2023-02-16T00:14:20;96478.47;;;-2.07;77.92
46379;BME280;32084;42.254;22.744;2023-02-16T00:16:51;96482.50;;;-1.97;77.85
46379;BME280;32084;42.254;22.744;2023-02-16T00:21:47;96479.53;;;-1.88;78.16
46379;BME280;32084;42.254;22.744;2023-02-16T00:24:13;96480.06;;;-2.03;78.19
46379;BME280;32084;42.254;22.744;2023-02-16T00:26:39;96480.03;;;-2.02;78.13
46379;BME280;32084;42.254;22.744;2023-02-16T00:29:09;96483.94;;;-1.88;77.81
46379;BME280;32084;42.254;22.744;2023-02-16T00:31:35;96482.94;;;-1.84;77.12
46379;BME280;32084;42.254;22.744;2023-02-16T00:34:06;96483.59;;;-1.78;77.97
46379;BME280;32084;42.254;22.744;2023-02-16T00:36:41;96487.69;;;-1.96;77.04
46379;BME280;32084;42.254;22.744;2023-02-16T00:39:07;96481.25;;;-2.12;77.54
46379;BME280;32084;42.254;22.744;2023-02-16T00:41:33;96486.47;;;-2.37;78.42
46379;BME280;32084;42.254;22.744;2023-02-16T00:46:44;96481.06;;;-2.32;79.93
46379;BME280;32084;42.254;22.744;2023-02-16T00:49:17;96484.69;;;-2.10;79.85
46379;BME280;32084;42.254;22.744;2023-02-16T00:51:44;96482.88;;;-1.83;79.81
46379;BME280;32084;42.254;22.744;2023-02-16T00:54:10;96472.59;;;-1.64;79.25
46379;BME280;32084;42.254;22.744;2023-02-16T00:56:36;96480.94;;;-1.52;78.54
46379;BME280;32084;42.254;22.744;2023-02-16T00:59:03;96475.13;;;-1.61;77.08
46379;BME280;32084;42.254;22.744;2023-02-16T01:01:31;96471.84;;;-1.92;77.33
46379;BME280;32084;42.254;22.744;2023-02-16T01:03:58;96477.38;;;-2.00;76.79
46379;BME280;32084;42.254;22.744;2023-02-16T01:06:26;96478.44;;;-2.06;76.52
46379;BME280;32084;42.254;22.744;2023-02-16T01:09:14;96468.97;;;-2.10;76.82
46379;BME280;32084;42.254;22.744;2023-02-16T01:11:59;96471.72;;;-2.41;77.44
46379;BME280;32084;42.254;22.744;2023-02-16T01:14:26;96467.91;;;-2.58;78.13
46379;BME280;32084;42.254;22.744;2023-02-16T01:16:52;96475.22;;;-2.67;78.55
46379;BME280;32084;42.254;22.744;2023-02-16T01:19:18;96468.84;;;-2.60;79.08
46379;BME280;32084;42.254;22.744;2023-02-16T01:21:44;96465.13;;;-2.53;78.74
46379;BME280;32084;42.254;22.744;2023-02-16T01:24:10;96460.31;;;-2.65;79.08
46379;BME280;32084;42.254;22.744;2023-02-16T01:26:37;96468.75;;;-2.57;78.83
46379;BME280;32084;42.254;22.744;2023-02-16T01:29:03;96461.47;;;-2.47;77.81
46379;BME280;32084;42.254;22.744;2023-02-16T01:31:29;96463.09;;;-2.71;77.65
46379;BME280;32084;42.254;22.744;2023-02-16T01:33:55;96456.88;;;-2.67;77.71
46379;BME280;32084;42.254;22.744;2023-02-16T01:38:50;96452.50;;;-2.95;78.46
46379;BME280;32084;42.254;22.744;2023-02-16T01:41:19;96458.97;;;-2.79;78.55
46379;BME280;32084;42.254;22.744;2023-02-16T01:43:58;96452.69;;;-2.73;78.97
46379;BME280;32084;42.254;22.744;2023-02-16T01:49:12;96458.63;;;-2.41;78.17
46379;BME280;32084;42.254;22.744;2023-02-16T01:51:44;96454.81;;;-2.31;77.76
46379;BME280;32084;42.254;22.744;2023-02-16T01:56:49;96448.34;;;-2.74;77.98
46379;BME280;32084;42.254;22.744;2023-02-16T02:02:02;96450.91;;;-2.72;78.71
46379;BME280;32084;42.254;22.744;2023-02-16T02:07:18;96450.19;;;-2.78;78.58
46379;BME280;32084;42.254;22.744;2023-02-16T02:09:49;96443.91;;;-2.72;78.35
46379;BME280;32084;42.254;22.744;2023-02-16T02:12:27;96445.44;;;-2.65;78.13
46379;BME280;32084;42.254;22.744;2023-02-16T02:14:57;96445.72;;;-2.74;78.04
46379;BME280;32084;42.254;22.744;2023-02-16T02:17:23;96444.97;;;-2.78;78.40
46379;BME280;32084;42.254;22.744;2023-02-16T02:27:46;96443.34;;;-3.10;77.90
46379;BME280;32084;42.254;22.744;2023-02-16T02:35:15;96443.59;;;-2.89;77.57
46379;BME280;32084;42.254;22.744;2023-02-16T02:37:51;96436.59;;;-2.89;76.73
46379;BME280;32084;42.254;22.744;2023-02-16T02:43:03;96433.84;;;-3.12;78.00
46379;BME280;32084;42.254;22.744;2023-02-16T02:45:41;96443.81;;;-3.25;77.95
46379;BME280;32084;42.254;22.744;2023-02-16T02:48:08;96448.34;;;-3.32;78.61
46379;BME280;32084;42.254;22.744;2023-02-16T02:50:48;96447.28;;;-3.25;78.29
46379;BME280;32084;42.254;22.744;2023-02-16T02:53:43;96441.88;;;-3.19;78.34
46379;BME280;32084;42.254;22.744;2023-02-16T02:56:10;96440.72;;;-3.40;77.60
46379;BME280;32084;42.254;22.744;2023-02-16T02:58:57;96442.69;;;-3.46;78.04
46379;BME280;32084;42.254;22.744;2023-02-16T03:01:46;96442.53;;;-3.42;77.77
46379;BME280;32084;42.254;22.744;2023-02-16T03:04:14;96439.38;;;-3.53;78.16
46379;BME280;32084;42.254;22.744;2023-02-16T03:06:45;96441.06;;;-3.50;77.72
46379;BME280;32084;42.254;22.744;2023-02-16T03:09:13;96445.81;;;-3.34;78.24
46379;BME280;32084;42.254;22.744;2023-02-16T03:11:40;96435.09;;;-3.56;77.52
46379;BME280;32084;42.254;22.744;2023-02-16T03:14:29;96440.09;;;-3.48;78.04
46379;BME280;32084;42.254;22.744;2023-02-16T03:16:59;96437.00;;;-3.31;77.59
46379;BME280;32084;42.254;22.744;2023-02-16T03:19:44;96444.06;;;-3.35;77.16
46379;BME280;32084;42.254;22.744;2023-02-16T03:22:29;96436.31;;;-3.67;77.43
46379;BME280;32084;42.254;22.744;2023-02-16T03:25:15;96435.66;;;-3.76;78.58
46379;BME280;32084;42.254;22.744;2023-02-16T03:27:59;96440.34;;;-3.56;78.41
46379;BME280;32084;42.254;22.744;2023-02-16T03:30:46;96438.50;;;-3.52;78.30
46379;BME280;32084;42.254;22.744;2023-02-16T03:33:12;96436.88;;;-3.56;77.13
46379;BME280;32084;42.254;22.744;2023-02-16T03:35:38;96446.25;;;-3.80;78.09
46379;BME280;32084;42.254;22.744;2023-02-16T03:38:04;96437.66;;;-3.85;78.64
46379;BME280;32084;42.254;22.744;2023-02-16T03:40:31;96445.75;;;-3.62;79.18
46379;BME280;32084;42.254;22.744;2023-02-16T03:43:00;96439.34;;;-3.51;78.05
46379;BME280;32084;42.254;22.744;2023-02-16T03:45:27;96432.06;;;-3.42;77.42
46379;BME280;32084;42.254;22.744;2023-02-16T03:47:53;96437.06;;;-3.62;77.20
46379;BME280;32084;42.254;22.744;2023-02-16T03:50:19;96436.03;;;-3.89;77.08
46379;BME280;32084;42.254;22.744;2023-02-16T03:52:45;96432.91;;;-4.02;78.28
46379;BME280;32084;42.254;22.744;2023-02-16T03:55:12;96422.94;;;-3.88;78.07
46379;BME280;32084;42.254;22.744;2023-02-16T03:57:38;96425.16;;;-3.74;77.48
46379;BME280;32084;42.254;22.744;2023-02-16T04:00:04;96414.41;;;-3.63;77.95
46379;BME280;32084;42.254;22.744;2023-02-16T04:02:30;96414.75;;;-3.76;76.77
46379;BME280;32084;42.254;22.744;2023-02-16T04:04:56;96421.56;;;-3.70;76.61
46379;BME280;32084;42.254;22.744;2023-02-16T04:07:23;96425.00;;;-3.68;76.54
46379;BME280;32084;42.254;22.744;2023-02-16T04:09:49;96416.47;;;-3.75;76.66
46379;BME280;32084;42.254;22.744;2023-02-16T04:12:15;96421.38;;;-3.95;76.48
46379;BME280;32084;42.254;22.744;2023-02-16T04:14:59;96418.44;;;-3.83;78.24
46379;BME280;32084;42.254;22.744;2023-02-16T04:17:26;96425.91;;;-3.69;76.96
46379;BME280;32084;42.254;22.744;2023-02-16T04:19:52;96429.22;;;-3.62;77.00
46379;BME280;32084;42.254;22.744;2023-02-16T04:22:18;96429.03;;;-3.56;76.58
46379;BME280;32084;42.254;22.744;2023-02-16T04:24:44;96428.16;;;-3.88;75.99
46379;BME280;32084;42.254;22.744;2023-02-16T04:27:10;96426.53;;;-3.92;76.89
46379;BME280;32084;42.254;22.744;2023-02-16T04:29:36;96421.06;;;-3.83;77.66
46379;BME280;32084;42.254;22.744;2023-02-16T04:32:02;96416.84;;;-3.87;76.80
46379;BME280;32084;42.254;22.744;2023-02-16T04:34:28;96427.66;;;-4.02;76.38
46379;BME280;32084;42.254;22.744;2023-02-16T04:36:54;96423.69;;;-4.16;77.53
46379;BME280;32084;42.254;22.744;2023-02-16T04:39:20;96427.59;;;-3.99;77.07
46379;BME280;32084;42.254;22.744;2023-02-16T04:41:46;96423.50;;;-3.77;77.55
46379;BME280;32084;42.254;22.744;2023-02-16T04:44:12;96428.72;;;-3.77;76.80
46379;BME280;32084;42.254;22.744;2023-02-16T04:46:38;96425.31;;;-3.79;75.76
46379;BME280;32084;42.254;22.744;2023-02-16T04:49:04;96432.06;;;-4.03;76.71
46379;BME280;32084;42.254;22.744;2023-02-16T04:51:30;96425.81;;;-4.30;78.04
46379;BME280;32084;42.254;22.744;2023-02-16T04:53:56;96429.31;;;-4.31;79.08
46379;BME280;32084;42.254;22.744;2023-02-16T04:56:22;96427.88;;;-4.10;78.78
46379;BME280;32084;42.254;22.744;2023-02-16T04:58:48;96433.56;;;-3.94;78.50
46379;BME280;32084;42.254;22.744;2023-02-16T05:01:21;96435.78;;;-3.80;77.89
46379;BME280;32084;42.254;22.744;2023-02-16T05:03:47;96432.28;;;-3.79;76.76
46379;BME280;32084;42.254;22.744;2023-02-16T05:06:13;96438.97;;;-4.00;76.12
46379;BME280;32084;42.254;22.744;2023-02-16T05:08:39;96450.44;;;-4.40;77.47
46379;BME280;32084;42.254;22.744;2023-02-16T05:11:05;96450.19;;;-4.31;77.57
46379;BME280;32084;42.254;22.744;2023-02-16T05:13:50;96452.53;;;-4.20;77.44
46379;BME280;32084;42.254;22.744;2023-02-16T05:16:34;96453.22;;;-4.14;76.01
46379;BME280;32084;42.254;22.744;2023-02-16T05:19:00;96457.38;;;-4.39;75.98
46379;BME280;32084;42.254;22.744;2023-02-16T05:21:26;96462.03;;;-4.52;77.28
46379;BME280;32084;42.254;22.744;2023-02-16T05:23:55;96455.44;;;-4.33;77.59
46379;BME280;32084;42.254;22.744;2023-02-16T05:26:21;96454.31;;;-4.21;77.06
46379;BME280;32084;42.254;22.744;2023-02-16T05:28:47;96451.34;;;-4.08;77.46
46379;BME280;32084;42.254;22.744;2023-02-16T05:31:13;96451.91;;;-3.96;76.78
46379;BME280;32084;42.254;22.744;2023-02-16T05:33:39;96452.63;;;-3.90;76.17
46379;BME280;32084;42.254;22.744;2023-02-16T05:36:06;96450.53;;;-4.10;75.85
46379;BME280;32084;42.254;22.744;2023-02-16T05:38:32;96451.19;;;-4.02;76.21
46379;BME280;32084;42.254;22.744;2023-02-16T05:40:58;96453.09;;;-4.07;76.27
46379;BME280;32084;42.254;22.744;2023-02-16T05:43:24;96450.16;;;-3.97;76.09
46379;BME280;32084;42.254;22.744;2023-02-16T05:45:50;96461.56;;;-3.99;76.67
46379;BME280;32084;42.254;22.744;2023-02-16T05:48:16;96459.47;;;-3.85;78.44
46379;BME280;32084;42.254;22.744;2023-02-16T05:50:42;96463.69;;;-3.81;77.66
46379;BME280;32084;42.254;22.744;2023-02-16T05:53:08;96467.91;;;-3.75;78.64
46379;BME280;32084;42.254;22.744;2023-02-16T05:55:35;96467.69;;;-3.67;78.01
46379;BME280;32084;42.254;22.744;2023-02-16T05:58:01;96469.47;;;-3.38;76.21
46379;BME280;32084;42.254;22.744;2023-02-16T06:00:27;96464.44;;;-3.46;76.21
46379;BME280;32084;42.254;22.744;2023-02-16T06:02:53;96475.81;;;-3.17;75.45
46379;BME280;32084;42.254;22.744;2023-02-16T06:05:19;96479.59;;;-2.41;72.97
46379;BME280;32084;42.254;22.744;2023-02-16T06:07:45;96477.06;;;-1.91;71.21
46379;BME280;32084;42.254;22.744;2023-02-16T06:10:11;96478.50;;;-1.33;69.31
46379;BME280;32084;42.254;22.744;2023-02-16T06:12:37;96490.78;;;-0.65;65.36
46379;BME280;32084;42.254;22.744;2023-02-16T06:15:03;96484.81;;;0.78;60.31
46379;BME280;32084;42.254;22.744;2023-02-16T06:17:29;96484.22;;;2.03;56.36
46379;BME280;32084;42.254;22.744;2023-02-16T06:19:55;96502.53;;;3.41;53.58
46379;BME280;32084;42.254;22.744;2023-02-16T06:22:21;96506.03;;;4.66;49.51
46379;BME280;32084;42.254;22.744;2023-02-16T06:24:47;96508.78;;;6.06;47.33
46379;BME280;32084;42.254;22.744;2023-02-16T06:27:13;96523.84;;;6.73;45.12
46379;BME280;32084;42.254;22.744;2023-02-16T06:29:39;96523.81;;;6.48;43.54
46379;BME280;32084;42.254;22.744;2023-02-16T06:32:06;96514.84;;;6.09;45.57
46379;BME280;32084;42.254;22.744;2023-02-16T06:34:32;96529.75;;;7.04;43.80
46379;BME280;32084;42.254;22.744;2023-02-16T06:36:58;96530.56;;;8.43;41.81
46379;BME280;32084;42.254;22.744;2023-02-16T06:39:24;96541.75;;;9.41;40.19
46379;BME280;32084;42.254;22.744;2023-02-16T06:41:50;96536.63;;;9.94;39.05
46379;BME280;32084;42.254;22.744;2023-02-16T06:44:16;96537.34;;;10.30;38.35
46379;BME280;32084;42.254;22.744;2023-02-16T06:46:43;96539.25;;;10.72;38.17
46379;BME280;32084;42.254;22.744;2023-02-16T06:49:14;96543.56;;;10.84;37.59
46379;BME280;32084;42.254;22.744;2023-02-16T06:51:41;96544.56;;;10.83;37.18
46379;BME280;32084;42.254;22.744;2023-02-16T06:54:07;96548.72;;;10.76;37.39
46379;BME280;32084;42.254;22.744;2023-02-16T06:56:33;96549.75;;;10.85;36.97
46379;BME280;32084;42.254;22.744;2023-02-16T06:59:00;96551.97;;;11.12;36.92
46379;BME280;32084;42.254;22.744;2023-02-16T07:01:26;96543.38;;;11.39;37.13
46379;BME280;32084;42.254;22.744;2023-02-16T07:03:53;96548.31;;;12.46;35.56
46379;BME280;32084;42.254;22.744;2023-02-16T07:06:19;96555.97;;;12.41;34.69
46379;BME280;32084;42.254;22.744;2023-02-16T07:08:45;96549.81;;;12.19;34.77
46379;BME280;32084;42.254;22.744;2023-02-16T07:11:12;96555.53;;;12.55;34.30
46379;BME280;32084;42.254;22.744;2023-02-16T07:13:38;96553.41;;;12.29;34.93
46379;BME280;32084;42.254;22.744;2023-02-16T07:16:04;96552.25;;;12.22;35.14
46379;BME280;32084;42.254;22.744;2023-02-16T07:18:31;96549.56;;;12.22;35.29
46379;BME280;32084;42.254;22.744;2023-02-16T07:20:58;96540.25;;;11.86;36.11
46379;BME280;32084;42.254;22.744;2023-02-16T07:23:24;96535.09;;;11.42;37.27
46379;BME280;32084;42.254;22.744;2023-02-16T07:25:51;96524.41;;;9.58;40.26
46379;BME280;32084;42.254;22.744;2023-02-16T07:28:17;96508.38;;;7.68;44.53
46379;BME280;32084;42.254;22.744;2023-02-16T07:30:43;96494.59;;;6.73;47.44
46379;BME280;32084;42.254;22.744;2023-02-16T07:33:09;96480.44;;;6.47;48.21
46379;BME280;32084;42.254;22.744;2023-02-16T07:35:35;96479.44;;;5.95;49.52
46379;BME280;32084;42.254;22.744;2023-02-16T07:38:02;96473.00;;;5.85;51.11
46379;BME280;32084;42.254;22.744;2023-02-16T07:40:28;96471.84;;;5.89;51.22
46379;BME280;32084;42.254;22.744;2023-02-16T07:42:58;96464.16;;;5.57;51.95
46379;BME280;32084;42.254;22.744;2023-02-16T07:45:24;96459.06;;;5.40;54.25
46379;BME280;32084;42.254;22.744;2023-02-16T07:47:50;96463.72;;;5.78;52.99
46379;BME280;32084;42.254;22.744;2023-02-16T07:50:16;96455.09;;;5.47;54.24
46379;BME280;32084;42.254;22.744;2023-02-16T07:52:42;96461.88;;;5.65;54.41
46379;BME280;32084;42.254;22.744;2023-02-16T07:55:08;96467.56;;;6.01;53.07
46379;BME280;32084;42.254;22.744;2023-02-16T07:57:36;96466.38;;;6.32;52.72
46379;BME280;32084;42.254;22.744;2023-02-16T08:00:04;96461.00;;;6.06;53.09
46379;BME280;32084;42.254;22.744;2023-02-16T08:02:30;96464.16;;;5.57;54.54
46379;BME280;32084;42.254;22.744;2023-02-16T08:04:56;96460.88;;;5.81;54.37
46379;BME280;32084;42.254;22.744;2023-02-16T08:07:22;96459.88;;;6.23;53.85
46379;BME280;32084;42.254;22.744;2023-02-16T08:09:48;96469.28;;;6.42;53.60
46379;BME280;32084;42.254;22.744;2023-02-16T08:12:15;96461.50;;;5.99;53.42
46379;BME280;32084;42.254;22.744;2023-02-16T08:14:42;96460.16;;;5.92;53.57
46379;BME280;32084;42.254;22.744;2023-02-16T08:17:08;96461.50;;;6.39;52.75
46379;BME280;32084;42.254;22.744;2023-02-16T08:19:34;96461.94;;;6.45;52.98
46379;BME280;32084;42.254;22.744;2023-02-16T08:22:02;96470.66;;;6.48;53.34
46379;BME280;32084;42.254;22.744;2023-02-16T08:24:29;96466.88;;;6.64;52.63
46379;BME280;32084;42.254;22.744;2023-02-16T08:26:55;96472.09;;;7.17;51.53
46379;BME280;32084;42.254;22.744;2023-02-16T08:29:22;96474.75;;;7.04;51.40
46379;BME280;32084;42.254;22.744;2023-02-16T08:31:48;96461.34;;;6.80;52.54
46379;BME280;32084;42.254;22.744;2023-02-16T08:34:17;96462.41;;;6.65;53.12
46379;BME280;32084;42.254;22.744;2023-02-16T08:36:44;96462.50;;;7.15;51.92
46379;BME280;32084;42.254;22.744;2023-02-16T08:39:11;96465.16;;;7.28;51.21
46379;BME280;32084;42.254;22.744;2023-02-16T08:41:38;96455.63;;;7.49;51.96
46379;BME280;32084;42.254;22.744;2023-02-16T08:44:05;96459.38;;;7.84;50.17
46379;BME280;32084;42.254;22.744;2023-02-16T08:46:32;96456.72;;;7.84;49.60
46379;BME280;32084;42.254;22.744;2023-02-16T08:48:59;96452.19;;;7.97;50.10
46379;BME280;32084;42.254;22.744;2023-02-16T08:51:26;96458.59;;;8.43;48.57
46379;BME280;32084;42.254;22.744;2023-02-16T08:53:53;96451.72;;;8.03;49.25
46379;BME280;32084;42.254;22.744;2023-02-16T08:56:19;96454.25;;;8.53;49.05
46379;BME280;32084;42.254;22.744;2023-02-16T08:58:45;96451.63;;;8.64;47.50
46379;BME280;32084;42.254;22.744;2023-02-16T09:01:11;96457.47;;;8.81;47.31
46379;BME280;32084;42.254;22.744;2023-02-16T09:03:38;96458.97;;;9.07;46.48
46379;BME280;32084;42.254;22.744;2023-02-16T09:06:07;96453.91;;;8.69;47.11
46379;BME280;32084;42.254;22.744;2023-02-16T09:08:35;96453.69;;;8.72;48.32
46379;BME280;32084;42.254;22.744;2023-02-16T09:11:13;96452.19;;;9.03;47.91
46379;BME280;32084;42.254;22.744;2023-02-16T09:13:40;96461.41;;;9.33;45.85
46379;BME280;32084;42.254;22.744;2023-02-16T09:16:11;96453.16;;;9.36;46.20
46379;BME280;32084;42.254;22.744;2023-02-16T09:18:37;96452.16;;;9.48;45.67
46379;BME280;32084;42.254;22.744;2023-02-16T09:21:05;96443.81;;;9.42;46.22
46379;BME280;32084;42.254;22.744;2023-02-16T09:23:34;96445.88;;;9.49;45.98
46379;BME280;32084;42.254;22.744;2023-02-16T09:26:01;96442.81;;;9.65;46.12
46379;BME280;32084;42.254;22.744;2023-02-16T09:28:27;96440.13;;;9.76;46.01
46379;BME280;32084;42.254;22.744;2023-02-16T09:30:55;96442.34;;;9.49;45.89
46379;BME280;32084;42.254;22.744;2023-02-16T09:33:21;96435.59;;;9.88;45.52
46379;BME280;32084;42.254;22.744;2023-02-16T09:35:47;96431.78;;;10.13;44.76
46379;BME280;32084;42.254;22.744;2023-02-16T09:38:14;96427.94;;;10.27;44.65
46379;BME280;32084;42.254;22.744;2023-02-16T09:40:41;96429.72;;;10.70;43.19
46379;BME280;32084;42.254;22.744;2023-02-16T09:43:28;96434.41;;;10.25;43.55
46379;BME280;32084;42.254;22.744;2023-02-16T09:45:57;96421.97;;;10.35;44.70
46379;BME280;32084;42.254;22.744;2023-02-16T09:48:40;96423.47;;;10.49;43.48
46379;BME280;32084;42.254;22.744;2023-02-16T09:51:09;96428.56;;;10.94;43.05
46379;BME280;32084;42.254;22.744;2023-02-16T09:53:37;96426.28;;;11.10;42.96
46379;BME280;32084;42.254;22.744;2023-02-16T09:58:46;96419.13;;;10.90;43.16
46379;BME280;32084;42.254;22.744;2023-02-16T10:08:58;96411.41;;;11.27;42.42
46379;BME280;32084;42.254;22.744;2023-02-16T10:12:01;96416.16;;;11.14;42.96
46379;BME280;32084;42.254;22.744;2023-02-16T10:16:53;96397.75;;;11.71;42.15
46379;BME280;32084;42.254;22.744;2023-02-16T10:19:32;96395.44;;;12.07;40.98
46379;BME280;32084;42.254;22.744;2023-02-16T10:22:02;96398.34;;;11.84;41.86
46379;BME280;32084;42.254;22.744;2023-02-16T10:24:40;96399.13;;;11.56;41.60
46379;BME280;32084;42.254;22.744;2023-02-16T10:27:10;96393.38;;;11.80;42.38
46379;BME280;32084;42.254;22.744;2023-02-16T10:29:39;96385.94;;;11.93;41.57
46379;BME280;32084;42.254;22.744;2023-02-16T10:32:38;96396.06;;;11.80;40.49
46379;BME280;32084;42.254;22.744;2023-02-16T10:45:18;96357.19;;;11.95;41.61
46379;BME280;32084;42.254;22.744;2023-02-16T10:47:45;96354.91;;;12.10;41.20
46379;BME280;32084;42.254;22.744;2023-02-16T10:52:44;96356.78;;;12.39;41.02
46379;BME280;32084;42.254;22.744;2023-02-16T10:55:10;96343.34;;;12.29;41.14
46379;BME280;32084;42.254;22.744;2023-02-16T10:57:37;96339.13;;;12.26;40.92
46379;BME280;32084;42.254;22.744;2023-02-16T11:00:05;96333.63;;;11.99;40.76
46379;BME280;32084;42.254;22.744;2023-02-16T11:02:37;96336.59;;;12.05;41.16
46379;BME280;32084;42.254;22.744;2023-02-16T11:07:53;96332.75;;;12.18;40.35
46379;BME280;32084;42.254;22.744;2023-02-16T11:10:20;96321.91;;;12.09;40.84
46379;BME280;32084;42.254;22.744;2023-02-16T11:12:49;96321.63;;;12.32;40.63
46379;BME280;32084;42.254;22.744;2023-02-16T11:17:47;96318.19;;;13.34;39.50
46379;BME280;32084;42.254;22.744;2023-02-16T11:20:27;96322.72;;;13.24;38.87
46379;BME280;32084;42.254;22.744;2023-02-16T11:22:54;96317.53;;;13.13;38.77
46379;BME280;32084;42.254;22.744;2023-02-16T11:25:36;96316.38;;;12.87;39.11
46379;BME280;32084;42.254;22.744;2023-02-16T11:28:02;96308.28;;;12.69;39.82
46379;BME280;32084;42.254;22.744;2023-02-16T11:30:40;96307.69;;;13.13;39.51
46379;BME280;32084;42.254;22.744;2023-02-16T11:33:19;96306.31;;;12.99;38.82
46379;BME280;32084;42.254;22.744;2023-02-16T11:35:46;96294.59;;;13.28;38.94
46379;BME280;32084;42.254;22.744;2023-02-16T11:41:08;96290.66;;;13.50;38.36
46379;BME280;32084;42.254;22.744;2023-02-16T11:43:36;96278.47;;;13.38;38.62
46379;BME280;32084;42.254;22.744;2023-02-16T11:46:05;96268.25;;;13.41;38.75
46379;BME280;32084;42.254;22.744;2023-02-16T11:48:34;96283.81;;;13.38;38.45
46379;BME280;32084;42.254;22.744;2023-02-16T11:51:02;96270.00;;;13.33;38.61
46379;BME280;32084;42.254;22.744;2023-02-16T11:53:30;96270.88;;;13.51;38.43
46379;BME280;32084;42.254;22.744;2023-02-16T11:58:35;96276.16;;;13.79;37.63
46379;BME280;32084;42.254;22.744;2023-02-16T12:06:21;96255.88;;;13.84;37.69
46379;BME280;32084;42.254;22.744;2023-02-16T12:11:21;96251.16;;;13.96;37.15
46379;BME280;32084;42.254;22.744;2023-02-16T12:16:20;96246.28;;;14.00;36.79
46379;BME280;32084;42.254;22.744;2023-02-16T12:18:58;96244.13;;;14.03;35.93
46379;BME280;32084;42.254;22.744;2023-02-16T12:27:24;96220.13;;;13.66;36.29
46379;BME280;32084;42.254;22.744;2023-02-16T12:29:59;96224.09;;;13.62;36.59
46379;BME280;32084;42.254;22.744;2023-02-16T12:32:41;96217.56;;;13.46;36.68
46379;BME280;32084;42.254;22.744;2023-02-16T12:35:32;96216.00;;;13.26;36.64
46379;BME280;32084;42.254;22.744;2023-02-16T12:45:29;96209.91;;;13.34;36.30
46379;BME280;32084;42.254;22.744;2023-02-16T12:47:58;96202.22;;;13.39;36.60
46379;BME280;32084;42.254;22.744;2023-02-16T12:50:27;96203.69;;;13.33;36.19
46379;BME280;32084;42.254;22.744;2023-02-16T12:58:21;96199.47;;;13.48;35.24
46379;BME280;32084;42.254;22.744;2023-02-16T13:00:50;96191.19;;;13.42;35.60
46379;BME280;32084;42.254;22.744;2023-02-16T13:08:38;96176.75;;;13.43;35.91
46379;BME280;32084;42.254;22.744;2023-02-16T13:11:10;96187.19;;;13.64;35.27
46379;BME280;32084;42.254;22.744;2023-02-16T13:13:39;96179.19;;;13.54;35.17
46379;BME280;32084;42.254;22.744;2023-02-16T13:16:07;96175.28;;;13.48;34.88
46379;BME280;32084;42.254;22.744;2023-02-16T13:18:38;96173.06;;;13.44;34.90
46379;BME280;32084;42.254;22.744;2023-02-16T13:21:11;96175.97;;;13.51;34.68
46379;BME280;32084;42.254;22.744;2023-02-16T13:23:42;96175.28;;;13.48;34.63
46379;BME280;32084;42.254;22.744;2023-02-16T13:36:26;96165.66;;;13.82;34.17
46379;BME280;32084;42.254;22.744;2023-02-16T13:39:19;96157.28;;;13.85;34.63
46379;BME280;32084;42.254;22.744;2023-02-16T13:41:55;96153.84;;;13.75;34.47
46379;BME280;32084;42.254;22.744;2023-02-16T13:44:27;96152.06;;;13.83;34.77
46379;BME280;32084;42.254;22.744;2023-02-16T13:46:56;96154.13;;;13.90;34.42
46379;BME280;32084;42.254;22.744;2023-02-16T13:52:05;96152.25;;;13.90;34.46
46379;BME280;32084;42.254;22.744;2023-02-16T13:54:34;96154.13;;;13.90;34.37
46379;BME280;32084;42.254;22.744;2023-02-16T13:57:01;96152.75;;;13.85;34.69
46379;BME280;32084;42.254;22.744;2023-02-16T14:01:59;96154.94;;;13.64;33.67
46379;BME280;32084;42.254;22.744;2023-02-16T14:07:36;96144.78;;;13.76;34.48
46379;BME280;32084;42.254;22.744;2023-02-16T14:25:40;96149.56;;;13.46;33.72
46379;BME280;32084;42.254;22.744;2023-02-16T14:30:53;96144.09;;;13.56;34.16
46379;BME280;32084;42.254;22.744;2023-02-16T14:33:22;96145.28;;;13.53;33.92
46379;BME280;32084;42.254;22.744;2023-02-16T14:38:29;96142.06;;;13.50;34.03
46379;BME280;32084;42.254;22.744;2023-02-16T14:58:56;96145.13;;;13.37;33.92
46379;BME280;32084;42.254;22.744;2023-02-16T15:01:19;96140.09;;;13.24;35.24
46379;BME280;32084;42.254;22.744;2023-02-16T15:03:47;96131.13;;;12.97;36.39
46379;BME280;32084;42.254;22.744;2023-02-16T15:06:27;96129.19;;;12.72;37.85
46379;BME280;32084;42.254;22.744;2023-02-16T15:08:57;96121.91;;;12.26;38.76
46379;BME280;32084;42.254;22.744;2023-02-16T15:11:26;96128.66;;;11.93;39.75
46379;BME280;32084;42.254;22.744;2023-02-16T15:13:53;96120.81;;;11.62;40.48
46379;BME280;32084;42.254;22.744;2023-02-16T15:16:20;96120.88;;;11.23;41.25
46379;BME280;32084;42.254;22.744;2023-02-16T15:18:48;96115.47;;;10.84;42.45
46379;BME280;32084;42.254;22.744;2023-02-16T15:21:16;96110.50;;;10.60;42.76
46379;BME280;32084;42.254;22.744;2023-02-16T15:23:50;96112.28;;;10.30;43.47
46379;BME280;32084;42.254;22.744;2023-02-16T15:26:21;96107.66;;;10.02;43.85
46379;BME280;32084;42.254;22.744;2023-02-16T15:28:55;96112.50;;;9.87;44.29
46379;BME280;32084;42.254;22.744;2023-02-16T15:31:23;96107.25;;;9.75;44.22
46379;BME280;32084;42.254;22.744;2023-02-16T15:33:57;96109.28;;;9.62;44.36
46379;BME280;32084;42.254;22.744;2023-02-16T15:36:31;96113.44;;;9.55;44.72
46379;BME280;32084;42.254;22.744;2023-02-16T15:38:59;96110.66;;;9.56;44.41
46379;BME280;32084;42.254;22.744;2023-02-16T15:41:32;96107.72;;;9.38;45.23
46379;BME280;32084;42.254;22.744;2023-02-16T15:43:59;96101.72;;;9.04;45.98
46379;BME280;32084;42.254;22.744;2023-02-16T15:46:28;96107.09;;;8.93;46.36